Time;durP1;ratioP1;P1;durP2;ratioP2;P2;SDS_P1;SDS_P2;PMS_P1;PMS_P2;Temp;Humidity;BMP_temperature;BMP_pressure;BME280_temperature;BME280_humidity;BME280_pressure;Samples;Min_cycle;Max_cycle;Signal;HPM_P1;HPM_P2
2021/09/18 00:00:59;;;;;;;;;;;;;;;13.43;89.60;97637.70;1626603;86;20167;-78
2021/09/18 00:03:26;;;;;;;;;;;;;;;13.45;89.77;97640.12;1632883;87;20202;-78
2021/09/18 00:05:53;;;;;;;;;;;;;;;13.48;89.71;97635.41;1654816;86;20386;-82
2021/09/18 00:08:20;;;;;;;;;;;;;;;13.45;89.65;97636.03;1637257;86;20150;-83
2021/09/18 00:10:46;;;;;;;;;;;;;;;13.48;89.64;97638.94;1655505;85;21757;-82
2021/09/18 00:13:13;;;;;;;;;;;;;;;13.49;89.45;97640.54;1631590;86;20417;-83
2021/09/18 00:15:40;;;;;;;;;;;;;;;13.49;89.63;97640.54;1632516;87;20242;-81
2021/09/18 00:18:07;;;;;;;;;;;;;;;13.54;89.68;97633.63;1647369;86;20147;-83
2021/09/18 00:20:34;;;;;;;;;;;;;;;13.59;89.53;97642.25;1655550;85;20170;-78
2021/09/18 00:23:01;;;;;;;;;;;;;;;13.63;89.64;97641.06;1655481;85;20953;-78
2021/09/18 00:25:28;;;;;;;;;;;;;;;13.62;89.24;97641.62;1652769;85;20141;-78
2021/09/18 00:27:55;;;;;;;;;;;;;;;13.62;89.14;97651.70;1641344;87;20150;-83
2021/09/18 00:30:21;;;;;;;;;;;;;;;13.60;88.97;97639.77;1641580;85;20225;-78
2021/09/18 00:32:48;;;;;;;;;;;;;;;13.59;88.99;97649.05;1641111;86;20166;-83
2021/09/18 00:35:15;;;;;;;;;;;;;;;13.54;88.94;97647.23;1641400;86;21023;-78
2021/09/18 00:37:42;;;;;;;;;;;;;;;13.51;88.57;97643.78;1641315;86;20173;-83
2021/09/18 00:40:10;;;;;;;;;;;;;;;13.45;88.72;97642.84;1641396;86;20183;-83
2021/09/18 00:42:37;;;;;;;;;;;;;;;13.46;88.62;97642.53;1641423;85;20149;-83
2021/09/18 00:45:05;;;;;;;;;;;;;;;13.41;88.39;97643.19;1641406;85;20184;-83
2021/09/18 00:47:32;;;;;;;;;;;;;;;13.35;88.42;97644.44;1641340;86;20866;-83
2021/09/18 00:49:59;;;;;;;;;;;;;;;13.30;88.49;97645.34;1641759;85;20146;-82
2021/09/18 00:52:26;;;;;;;;;;;;;;;13.25;88.55;97648.19;1641360;86;20154;-78
2021/09/18 00:54:53;;;;;;;;;;;;;;;13.23;88.85;97651.75;1641462;86;20158;-83
2021/09/18 00:57:20;;;;;;;;;;;;;;;13.26;89.06;97653.87;1641382;86;20409;-78
2021/09/18 00:59:47;;;;;;;;;;;;;;;13.31;88.84;97648.30;1641461;85;21023;-83
2021/09/18 01:02:13;;;;;;;;;;;;;;;13.29;88.69;97651.89;1641244;86;20144;-83
2021/09/18 01:04:59;;;;;;;;;;;;;;;13.31;88.87;97654.30;1641455;87;20111;-83
2021/09/18 01:07:26;;;;;;;;;;;;;;;13.36;88.89;97652.84;1630177;86;20872;-78
2021/09/18 01:09:52;;;;;;;;;;;;;;;13.39;88.87;97647.58;1655853;85;20477;-83
2021/09/18 01:12:19;;;;;;;;;;;;;;;13.42;88.72;97647.55;1628402;87;22322;-83
2021/09/18 01:14:46;;;;;;;;;;;;;;;13.45;89.04;97646.36;1643944;86;20151;-78
2021/09/18 01:17:13;;;;;;;;;;;;;;;13.51;88.78;97647.06;1642602;86;20202;-83
2021/09/18 01:19:40;;;;;;;;;;;;;;;13.52;88.79;97650.03;1631746;86;20201;-83
2021/09/18 01:22:07;;;;;;;;;;;;;;;13.50;88.31;97642.17;1648677;85;20142;-78
2021/09/18 01:24:35;;;;;;;;;;;;;;;13.40;88.51;97645.66;1641432;85;21013;-83
2021/09/18 01:27:02;;;;;;;;;;;;;;;13.38;88.61;97645.17;1637813;86;20468;-83
2021/09/18 01:29:29;;;;;;;;;;;;;;;13.35;88.85;97640.35;1641328;87;20417;-78
2021/09/18 01:31:56;;;;;;;;;;;;;;;13.35;88.83;97641.71;1620370;87;20171;-78
2021/09/18 01:34:23;;;;;;;;;;;;;;;13.38;89.17;97638.37;1623419;87;20102;-83
2021/09/18 01:36:51;;;;;;;;;;;;;;;13.35;88.87;97637.08;1636864;86;20987;-83
2021/09/18 01:39:18;;;;;;;;;;;;;;;13.26;88.54;97634.27;1622986;87;20143;-83
2021/09/18 01:41:46;;;;;;;;;;;;;;;13.20;88.84;97633.33;1646933;87;20158;-79
2021/09/18 01:44:13;;;;;;;;;;;;;;;13.19;89.23;97635.25;1641727;86;20139;-83
2021/09/18 01:46:39;;;;;;;;;;;;;;;13.21;89.22;97628.13;1641294;87;20181;-82
2021/09/18 01:49:14;;;;;;;;;;;;;;;13.23;88.96;97627.27;1641697;86;21123;-78
2021/09/18 01:51:54;;;;;;;;;;;;;;;13.19;89.21;97625.72;1641278;87;20181;-78
2021/09/18 01:54:13;;;;;;;;;;;;;;;13.20;89.02;97624.61;1639949;85;20138;-83
2021/09/18 01:56:40;;;;;;;;;;;;;;;13.14;89.48;97624.43;1636624;87;20465;-83
2021/09/18 01:59:06;;;;;;;;;;;;;;;13.18;89.47;97634.97;1620613;87;20146;-78
2021/09/18 02:01:33;;;;;;;;;;;;;;;13.17;89.32;97627.12;1640645;86;21735;-83
2021/09/18 02:04:00;;;;;;;;;;;;;;;13.17;89.22;97633.92;1636738;86;20171;-78
2021/09/18 02:06:27;;;;;;;;;;;;;;;13.08;89.54;97632.47;1636780;86;20319;-83
2021/09/18 02:08:54;;;;;;;;;;;;;;;13.06;89.33;97631.14;1636857;86;20140;-83
2021/09/18 02:11:21;;;;;;;;;;;;;;;13.03;89.25;97624.41;1636808;86;20150;-83
2021/09/18 02:13:48;;;;;;;;;;;;;;;12.96;89.40;97629.45;1618844;87;21608;-78
2021/09/18 02:16:15;;;;;;;;;;;;;;;12.94;89.59;97627.59;1640733;86;20425;-83
2021/09/18 02:18:41;;;;;;;;;;;;;;;12.96;89.51;97626.18;1636877;86;20209;-83
2021/09/18 02:21:08;;;;;;;;;;;;;;;12.91;89.61;97618.70;1636944;86;20151;-78
2021/09/18 02:23:35;;;;;;;;;;;;;;;12.91;89.79;97624.14;1641009;86;20145;-82
2021/09/18 02:26:02;;;;;;;;;;;;;;;12.95;89.82;97620.48;1641727;86;21759;-78
2021/09/18 02:28:29;;;;;;;;;;;;;;;12.99;89.92;97620.70;1625436;87;20434;-78
2021/09/18 02:30:56;;;;;;;;;;;;;;;13.02;89.58;97617.36;1637285;85;20143;-78
2021/09/18 02:33:22;;;;;;;;;;;;;;;12.97;89.58;97618.27;1634513;86;20158;-80
2021/09/18 02:35:49;;;;;;;;;;;;;;;13.00;89.82;97615.52;1634342;86;20151;-78
2021/09/18 02:38:16;;;;;;;;;;;;;;;13.05;89.89;97617.30;1634336;86;21730;-83
2021/09/18 02:40:43;;;;;;;;;;;;;;;13.10;89.92;97621.28;1634466;86;20409;-78
2021/09/18 02:43:13;;;;;;;;;;;;;;;13.15;89.83;97617.07;1634341;86;20139;-78
2021/09/18 02:45:39;;;;;;;;;;;;;;;13.15;89.40;97613.80;1634335;86;20775;-78
2021/09/18 02:48:06;;;;;;;;;;;;;;;13.11;89.34;97611.45;1634503;86;20139;-78
2021/09/18 02:50:33;;;;;;;;;;;;;;;13.07;89.39;97610.44;1623481;87;20883;-83
2021/09/18 02:52:59;;;;;;;;;;;;;;;12.99;89.57;97611.99;1644814;85;20163;-83
2021/09/18 02:55:27;;;;;;;;;;;;;;;12.95;89.58;97609.61;1634328;85;20180;-83
2021/09/18 02:57:54;;;;;;;;;;;;;;;12.88;89.46;97611.94;1634446;86;20661;-83
2021/09/18 03:00:20;;;;;;;;;;;;;;;12.82;89.71;97614.53;1634481;86;20430;-83
2021/09/18 03:02:47;;;;;;;;;;;;;;;12.82;89.75;97610.45;1634356;86;21009;-78
2021/09/18 03:05:14;;;;;;;;;;;;;;;12.83;89.60;97605.27;1634248;86;20106;-78
2021/09/18 03:07:41;;;;;;;;;;;;;;;12.85;89.56;97613.91;1634454;85;20166;-83
2021/09/18 03:10:09;;;;;;;;;;;;;;;12.86;89.48;97610.08;1617826;87;20654;-78
2021/09/18 03:12:36;;;;;;;;;;;;;;;12.84;89.67;97609.59;1647939;86;20151;-78
2021/09/18 03:15:04;;;;;;;;;;;;;;;12.84;89.48;97606.06;1621551;87;21026;-83
2021/09/18 03:17:31;;;;;;;;;;;;;;;12.86;89.34;97605.20;1648700;86;20135;-78
2021/09/18 03:19:58;;;;;;;;;;;;;;;12.84;89.27;97606.87;1639939;86;20143;-83
2021/09/18 03:22:25;;;;;;;;;;;;;;;12.87;89.40;97600.81;1634468;86;20153;-83
2021/09/18 03:24:52;;;;;;;;;;;;;;;12.90;89.35;97606.19;1634529;86;20201;-83
2021/09/18 03:27:18;;;;;;;;;;;;;;;12.92;88.93;97602.63;1647076;85;21039;-78
2021/09/18 03:29:45;;;;;;;;;;;;;;;12.94;89.13;97608.01;1655722;85;20139;-78
2021/09/18 03:32:12;;;;;;;;;;;;;;;12.96;88.97;97607.70;1655692;85;20221;-83
2021/09/18 03:34:39;;;;;;;;;;;;;;;12.97;89.01;97601.14;1655679;85;20142;-78
2021/09/18 03:37:06;;;;;;;;;;;;;;;12.93;89.09;97603.69;1626428;86;20138;-83
2021/09/18 03:39:33;;;;;;;;;;;;;;;12.96;89.21;97605.78;1632794;87;21034;-78
2021/09/18 03:42:00;;;;;;;;;;;;;;;12.97;88.88;97605.22;1636419;86;20138;-78
2021/09/18 03:44:26;;;;;;;;;;;;;;;12.93;88.97;97605.59;1655831;85;20146;-78
2021/09/18 03:46:53;;;;;;;;;;;;;;;12.93;88.84;97602.88;1655718;85;20154;-78
2021/09/18 03:49:20;;;;;;;;;;;;;;;12.86;89.01;97606.56;1655814;85;20142;-83
2021/09/18 03:51:47;;;;;;;;;;;;;;;12.89;89.08;97598.59;1655680;85;21876;-78
2021/09/18 03:54:14;;;;;;;;;;;;;;;12.87;89.19;97606.80;1655771;85;20402;-83
2021/09/18 03:56:41;;;;;;;;;;;;;;;12.88;89.07;97602.97;1630956;86;20461;-82
2021/09/18 03:59:08;;;;;;;;;;;;;;;12.87;88.90;97600.81;1655794;85;20142;-78
2021/09/18 04:01:35;;;;;;;;;;;;;;;12.82;89.14;97605.02;1655754;85;20174;-79
2021/09/18 04:04:02;;;;;;;;;;;;;;;12.79;88.69;97598.81;1655456;85;21052;-78
2021/09/18 04:06:29;;;;;;;;;;;;;;;12.78;88.42;97599.11;1655712;85;20154;-78
2021/09/18 04:08:55;;;;;;;;;;;;;;;12.76;88.67;97599.98;1655501;85;20159;-83
2021/09/18 04:11:22;;;;;;;;;;;;;;;12.78;88.58;97605.36;1655737;85;20180;-83
2021/09/18 04:13:51;;;;;;;;;;;;;;;12.79;88.37;97607.52;1655534;85;20171;-79
2021/09/18 04:16:20;;;;;;;;;;;;;;;12.78;88.38;97608.63;1655547;85;21158;-78
2021/09/18 04:18:47;;;;;;;;;;;;;;;12.73;88.33;97604.64;1655455;85;20221;-83
2021/09/18 04:21:14;;;;;;;;;;;;;;;12.77;88.57;97612.46;1655799;85;20154;-80
2021/09/18 04:23:40;;;;;;;;;;;;;;;12.80;88.64;97613.20;1655466;85;20210;-83
2021/09/18 04:26:07;;;;;;;;;;;;;;;12.83;88.56;97612.06;1655792;85;20146;-78
2021/09/18 04:28:34;;;;;;;;;;;;;;;12.82;88.28;97610.98;1655501;85;20991;-83
2021/09/18 04:31:01;;;;;;;;;;;;;;;12.78;88.64;97613.52;1655668;85;20142;-83
2021/09/18 04:33:28;;;;;;;;;;;;;;;12.84;88.70;97615.58;1655663;85;20159;-83
2021/09/18 04:35:55;;;;;;;;;;;;;;;12.81;88.47;97616.17;1655509;85;20143;-83
2021/09/18 04:38:22;;;;;;;;;;;;;;;12.78;88.31;97614.87;1655663;85;20206;-78
2021/09/18 04:40:49;;;;;;;;;;;;;;;12.76;88.64;97613.58;1655527;85;21059;-79
2021/09/18 04:43:15;;;;;;;;;;;;;;;12.80;88.82;97614.01;1655848;85;20118;-83
2021/09/18 04:45:42;;;;;;;;;;;;;;;12.81;88.39;97610.17;1655479;85;20202;-82
2021/09/18 04:48:09;;;;;;;;;;;;;;;12.76;88.35;97617.09;1655620;85;20152;-78
2021/09/18 04:50:36;;;;;;;;;;;;;;;12.75;88.56;97615.49;1655562;85;20154;-83
2021/09/18 04:53:03;;;;;;;;;;;;;;;12.75;88.60;97620.12;1628776;86;21024;-79
2021/09/18 04:55:30;;;;;;;;;;;;;;;12.76;88.65;97615.73;1647429;86;20443;-83
2021/09/18 04:57:57;;;;;;;;;;;;;;;12.79;88.27;97620.56;1655735;85;20135;-82
2021/09/18 05:00:24;;;;;;;;;;;;;;;12.78;87.93;97616.79;1655557;85;20139;-80
2021/09/18 05:02:50;;;;;;;;;;;;;;;12.75;87.89;97626.36;1624458;86;20142;-83
2021/09/18 05:05:17;;;;;;;;;;;;;;;12.76;87.81;97627.97;1632586;88;21217;-83
2021/09/18 05:07:44;;;;;;;;;;;;;;;12.73;88.01;97628.56;1649185;86;20183;-78
2021/09/18 05:10:11;;;;;;;;;;;;;;;12.75;87.94;97627.72;1655523;85;20126;-78
2021/09/18 05:12:38;;;;;;;;;;;;;;;12.71;87.97;97630.78;1655749;85;20134;-78
2021/09/18 05:15:06;;;;;;;;;;;;;;;12.72;88.41;97628.31;1655824;85;20150;-78
2021/09/18 05:17:33;;;;;;;;;;;;;;;12.79;88.46;97630.63;1655660;85;20884;-83
2021/09/18 05:20:00;;;;;;;;;;;;;;;12.82;88.10;97627.29;1655546;85;20255;-78
2021/09/18 05:22:26;;;;;;;;;;;;;;;12.81;88.14;97631.13;1621486;87;20175;-78
2021/09/18 05:24:53;;;;;;;;;;;;;;;12.79;87.71;97626.55;1621774;87;20178;-78
2021/09/18 05:27:20;;;;;;;;;;;;;;;12.78;88.14;97630.37;1648495;86;20150;-78
2021/09/18 05:29:47;;;;;;;;;;;;;;;12.82;88.03;97626.77;1641445;85;21034;-81
2021/09/18 05:32:14;;;;;;;;;;;;;;;12.85;87.81;97630.78;1641465;86;20155;-78
2021/09/18 05:34:41;;;;;;;;;;;;;;;12.84;87.37;97630.53;1641409;86;20145;-83
2021/09/18 05:37:08;;;;;;;;;;;;;;;12.87;87.73;97636.72;1641254;85;20162;-78
2021/09/18 05:39:34;;;;;;;;;;;;;;;12.95;87.92;97637.36;1641571;85;20149;-78
2021/09/18 05:42:01;;;;;;;;;;;;;;;13.00;87.84;97639.99;1641526;86;21023;-83
2021/09/18 05:44:28;;;;;;;;;;;;;;;13.04;87.88;97642.89;1635093;86;20126;-83
2021/09/18 05:46:55;;;;;;;;;;;;;;;13.10;87.49;97640.33;1656407;85;20394;-83
2021/09/18 05:49:22;;;;;;;;;;;;;;;13.07;87.63;97641.72;1655731;85;20198;-79
2021/09/18 05:51:49;;;;;;;;;;;;;;;13.02;87.29;97639.13;1655892;85;20171;-78
2021/09/18 05:54:16;;;;;;;;;;;;;;;13.01;87.63;97636.16;1635331;86;21022;-83
2021/09/18 05:56:43;;;;;;;;;;;;;;;12.95;87.41;97642.25;1647027;85;20414;-83
2021/09/18 05:59:09;;;;;;;;;;;;;;;12.98;87.66;97642.98;1636450;86;20179;-83
2021/09/18 06:01:36;;;;;;;;;;;;;;;12.98;87.70;97645.70;1629613;86;20167;-78
2021/09/18 06:04:03;;;;;;;;;;;;;;;12.99;87.97;97650.62;1655704;85;20175;-78
2021/09/18 06:06:30;;;;;;;;;;;;;;;13.03;87.95;97639.92;1642545;85;20911;-83
2021/09/18 06:08:57;;;;;;;;;;;;;;;13.04;87.84;97651.05;1641081;86;20406;-83
2021/09/18 06:11:24;;;;;;;;;;;;;;;13.02;87.29;97654.64;1641518;86;20179;-83
2021/09/18 06:13:52;;;;;;;;;;;;;;;13.03;87.59;97650.80;1641476;85;20142;-82
2021/09/18 06:16:19;;;;;;;;;;;;;;;13.10;87.72;97652.56;1641620;85;20139;-78
2021/09/18 06:18:46;;;;;;;;;;;;;;;13.19;87.62;97657.53;1641479;86;20913;-78
2021/09/18 06:21:12;;;;;;;;;;;;;;;13.24;87.15;97655.55;1641498;86;20105;-83
2021/09/18 06:23:40;;;;;;;;;;;;;;;13.30;86.75;97660.30;1641295;85;20146;-83
2021/09/18 06:26:08;;;;;;;;;;;;;;;13.27;85.57;97658.20;1641480;86;20154;-83
2021/09/18 06:28:35;;;;;;;;;;;;;;;13.32;85.02;97666.80;1636425;86;20138;-83
2021/09/18 06:31:02;;;;;;;;;;;;;;;13.44;84.47;97658.92;1669602;84;21563;-83
2021/09/18 06:33:29;;;;;;;;;;;;;;;13.52;84.33;97663.08;1667551;85;20159;-78
2021/09/18 06:35:56;;;;;;;;;;;;;;;13.63;84.44;97665.00;1638249;86;20133;-78
2021/09/18 06:38:23;;;;;;;;;;;;;;;13.64;82.04;97662.53;1667943;84;20150;-78
2021/09/18 06:40:52;;;;;;;;;;;;;;;13.65;82.24;97662.77;1667779;85;20170;-78
2021/09/18 06:43:19;;;;;;;;;;;;;;;13.63;83.24;97670.45;1666423;85;21030;-79
2021/09/18 06:45:47;;;;;;;;;;;;;;;13.62;83.34;97672.92;1667456;85;20425;-78
2021/09/18 06:48:14;;;;;;;;;;;;;;;13.61;83.17;97673.23;1643383;86;20138;-83
2021/09/18 06:50:41;;;;;;;;;;;;;;;13.55;82.32;97663.81;1670040;84;20236;-83
2021/09/18 06:53:08;;;;;;;;;;;;;;;13.48;81.91;97675.68;1669530;84;20170;-83
2021/09/18 06:55:35;;;;;;;;;;;;;;;13.44;82.53;97685.58;1667709;85;20467;-83
2021/09/18 06:58:02;;;;;;;;;;;;;;;13.41;82.15;97684.01;1668025;85;20175;-83
2021/09/18 07:00:29;;;;;;;;;;;;;;;13.33;81.82;97688.81;1668006;85;20177;-83
2021/09/18 07:02:56;;;;;;;;;;;;;;;13.33;82.60;97683.37;1648742;86;20141;-83
2021/09/18 07:05:23;;;;;;;;;;;;;;;13.30;81.09;97687.52;1637605;86;20142;-79
2021/09/18 07:07:50;;;;;;;;;;;;;;;13.32;82.15;97687.20;1641524;86;20751;-82
2021/09/18 07:10:16;;;;;;;;;;;;;;;13.37;81.13;97684.38;1669973;84;20166;-79
2021/09/18 07:12:43;;;;;;;;;;;;;;;13.44;82.09;97689.66;1641143;86;20154;-78
2021/09/18 07:15:10;;;;;;;;;;;;;;;13.46;81.70;97688.80;1667633;84;20587;-83
2021/09/18 07:17:37;;;;;;;;;;;;;;;13.58;81.97;97685.53;1648562;86;20134;-78
2021/09/18 07:20:05;;;;;;;;;;;;;;;13.65;80.75;97685.11;1667894;85;21715;-83
2021/09/18 07:22:32;;;;;;;;;;;;;;;13.62;79.67;97681.66;1667658;85;20189;-83
2021/09/18 07:24:58;;;;;;;;;;;;;;;13.67;80.74;97685.08;1667462;85;20142;-78
2021/09/18 07:27:25;;;;;;;;;;;;;;;13.74;80.68;97690.87;1648158;85;20182;-83
2021/09/18 07:29:52;;;;;;;;;;;;;;;13.86;80.77;97687.62;1642333;86;20189;-78
2021/09/18 07:32:20;;;;;;;;;;;;;;;13.98;81.56;97689.78;1641703;86;20961;-78
2021/09/18 07:34:47;;;;;;;;;;;;;;;14.02;79.38;97691.59;1669206;84;20145;-85
2021/09/18 07:37:13;;;;;;;;;;;;;;;14.08;79.76;97688.97;1667736;85;20413;-79
2021/09/18 07:39:40;;;;;;;;;;;;;;;14.03;80.39;97689.67;1642307;86;20254;-79
2021/09/18 07:42:07;;;;;;;;;;;;;;;14.06;78.13;97685.75;1667830;85;20142;-84
2021/09/18 07:44:34;;;;;;;;;;;;;;;14.16;79.42;97683.33;1667519;85;21089;-79
2021/09/18 07:47:01;;;;;;;;;;;;;;;14.15;78.74;97687.73;1667652;85;20166;-84
2021/09/18 07:49:28;;;;;;;;;;;;;;;14.27;79.36;97689.32;1667614;85;20138;-79
2021/09/18 07:51:55;;;;;;;;;;;;;;;14.34;79.14;97684.23;1667994;84;20134;-84
2021/09/18 07:54:23;;;;;;;;;;;;;;;14.34;79.60;97681.52;1667528;85;20174;-79
2021/09/18 07:56:49;;;;;;;;;;;;;;;14.40;78.15;97677.55;1630273;86;21103;-83
2021/09/18 07:59:16;;;;;;;;;;;;;;;14.61;77.93;97684.12;1660909;85;20133;-79
2021/09/18 08:01:43;;;;;;;;;;;;;;;14.61;77.01;97680.56;1660969;85;20149;-79
2021/09/18 08:04:10;;;;;;;;;;;;;;;14.69;77.76;97689.34;1660568;85;20410;-79
2021/09/18 08:06:37;;;;;;;;;;;;;;;14.88;76.64;97681.73;1630877;86;20146;-79
2021/09/18 08:09:04;;;;;;;;;;;;;;;15.57;73.75;97676.19;1660858;85;21184;-80
2021/09/18 08:11:33;;;;;;;;;;;;;;;17.72;71.53;97678.02;1660896;85;20142;-84
2021/09/18 08:14:02;;;;;;;;;;;;;;;17.65;70.62;97670.30;1631392;86;20151;-82
2021/09/18 08:16:29;;;;;;;;;;;;;;;17.48;71.13;97671.79;1666100;85;20129;-84
2021/09/18 08:18:56;;;;;;;;;;;;;;;17.55;71.65;97672.06;1667585;85;20158;-79
2021/09/18 08:21:23;;;;;;;;;;;;;;;17.36;70.71;97667.61;1631965;86;21046;-83
2021/09/18 08:23:49;;;;;;;;;;;;;;;17.54;70.58;97673.77;1661205;85;20154;-85
2021/09/18 08:26:16;;;;;;;;;;;;;;;19.68;65.61;97677.23;1660354;85;20142;-79
2021/09/18 08:28:43;;;;;;;;;;;;;;;20.31;56.88;97668.39;1631473;86;20655;-83
2021/09/18 08:31:10;;;;;;;;;;;;;;;19.30;60.92;97683.66;1666075;86;20154;-78
2021/09/18 08:33:39;;;;;;;;;;;;;;;18.85;60.17;97678.52;1667752;85;21208;-79
2021/09/18 08:36:06;;;;;;;;;;;;;;;18.20;59.98;97682.09;1667868;85;20154;-79
2021/09/18 08:38:33;;;;;;;;;;;;;;;17.68;62.20;97681.94;1667835;85;20137;-82
2021/09/18 08:41:00;;;;;;;;;;;;;;;17.15;63.47;97675.77;1668127;85;20217;-79
2021/09/18 08:43:27;;;;;;;;;;;;;;;16.90;65.44;97681.61;1667865;84;20166;-84
2021/09/18 08:45:54;;;;;;;;;;;;;;;16.72;65.42;97682.82;1619400;86;21173;-83
2021/09/18 08:48:21;;;;;;;;;;;;;;;16.53;66.02;97682.61;1668911;85;20170;-79
2021/09/18 08:50:49;;;;;;;;;;;;;;;16.41;65.89;97680.30;1667784;85;20142;-84
2021/09/18 08:53:16;;;;;;;;;;;;;;;16.17;65.94;97681.66;1635017;86;20131;-84
2021/09/18 08:55:43;;;;;;;;;;;;;;;15.83;66.32;97681.12;1667748;85;20121;-83
2021/09/18 08:58:10;;;;;;;;;;;;;;;15.67;67.65;97681.36;1667916;84;21636;-79
2021/09/18 09:00:40;;;;;;;;;;;;;;;15.72;67.30;97682.55;1667673;85;20178;-85
2021/09/18 09:03:08;;;;;;;;;;;;;;;15.55;66.93;97683.30;1668064;85;20170;-79
2021/09/18 09:05:40;;;;;;;;;;;;;;;15.39;66.79;97683.55;1667791;85;20685;-85
2021/09/18 09:08:11;;;;;;;;;;;;;;;15.10;67.00;97688.20;1667967;84;20209;-79
2021/09/18 09:10:38;;;;;;;;;;;;;;;15.06;67.02;97688.05;1667914;85;21064;-78
2021/09/18 09:13:06;;;;;;;;;;;;;;;15.07;68.39;97685.56;1667922;84;20141;-83
2021/09/18 09:15:33;;;;;;;;;;;;;;;15.20;68.15;97679.72;1667741;85;20150;-85
2021/09/18 09:18:22;;;;;;;;;;;;;;;15.23;67.84;97677.73;1667949;85;20166;-79
2021/09/18 09:20:51;;;;;;;;;;;;;;;15.36;68.17;97681.44;1667862;84;20150;-77
2021/09/18 09:23:19;;;;;;;;;;;;;;;15.47;66.80;97674.01;1667910;84;21009;-77
2021/09/18 09:25:49;;;;;;;;;;;;;;;15.41;67.62;97682.67;1667657;84;20142;-78
2021/09/18 09:28:37;;;;;;;;;;;;;;;15.37;67.71;97671.56;1631674;87;20447;-79
2021/09/18 09:31:16;;;;;;;;;;;;;;;15.31;67.85;97675.59;1636615;86;20183;-79
2021/09/18 09:34:18;;;;;;;;;;;;;;;15.39;66.83;97684.92;1638506;85;20425;-84
2021/09/18 09:36:46;;;;;;;;;;;;;;;15.26;67.60;97679.02;1621077;87;20892;-82
2021/09/18 09:39:15;;;;;;;;;;;;;;;15.27;67.81;97684.72;1621582;86;20174;-82
2021/09/18 09:41:47;;;;;;;;;;;;;;;15.27;67.70;97686.89;1641561;86;20214;-82
2021/09/18 09:44:20;;;;;;;;;;;;;;;15.26;67.89;97685.84;1641544;85;20166;-82
2021/09/18 09:47:08;;;;;;;;;;;;;;;15.26;68.40;97696.20;1640687;86;20170;-78
2021/09/18 09:49:46;;;;;;;;;;;;;;;15.31;67.83;97687.07;1641361;87;21599;-78
2021/09/18 09:52:27;;;;;;;;;;;;;;;15.28;67.53;97684.96;1641344;86;20240;-78
2021/09/18 09:54:58;;;;;;;;;;;;;;;15.27;67.78;97681.42;1641004;85;20414;-84
2021/09/18 09:57:24;;;;;;;;;;;;;;;15.40;66.32;97683.80;1641705;86;20169;-78
2021/09/18 10:00:02;;;;;;;;;;;;;;;15.44;65.99;97677.36;1641371;85;20170;-81
2021/09/18 10:02:29;;;;;;;;;;;;;;;15.45;66.17;97680.33;1641483;85;21020;-84
2021/09/18 10:04:56;;;;;;;;;;;;;;;15.57;66.74;97673.45;1641262;86;20209;-83
2021/09/18 10:07:23;;;;;;;;;;;;;;;15.73;67.22;97671.33;1641575;85;20185;-78
2021/09/18 10:09:49;;;;;;;;;;;;;;;15.81;65.71;97669.72;1641344;86;20163;-83
2021/09/18 10:12:16;;;;;;;;;;;;;;;15.80;66.35;97676.28;1641611;86;20144;-83
2021/09/18 10:14:46;;;;;;;;;;;;;;;15.86;66.60;97666.00;1641339;86;21728;-82
2021/09/18 10:17:13;;;;;;;;;;;;;;;15.78;67.39;97668.98;1641842;86;20149;-82
2021/09/18 10:24:57;;;;;;;;;;;;;;;15.78;66.88;97668.98;1641805;87;20219;-83
2021/09/18 10:27:25;;;;;;;;;;;;;;;15.74;66.93;97674.30;1641946;86;21182;-79
2021/09/18 10:29:52;;;;;;;;;;;;;;;15.72;66.32;97673.81;1641368;86;20222;-84
2021/09/18 10:32:20;;;;;;;;;;;;;;;15.83;66.20;97672.12;1641686;86;20406;-84
2021/09/18 10:34:47;;;;;;;;;;;;;;;16.05;65.50;97673.30;1641819;86;20406;-80
2021/09/18 10:37:32;;;;;;;;;;;;;;;16.24;65.50;97677.87;1641741;86;20182;-80
2021/09/18 10:40:11;;;;;;;;;;;;;;;16.34;66.15;97674.78;1641573;85;21639;-85
2021/09/18 10:42:40;;;;;;;;;;;;;;;16.70;65.04;97670.84;1641432;87;20158;-80
2021/09/18 10:45:08;;;;;;;;;;;;;;;16.84;63.51;97667.90;1641552;86;20146;-80
2021/09/18 10:47:43;;;;;;;;;;;;;;;16.94;64.70;97670.83;1641701;86;20459;-80
2021/09/18 10:50:26;;;;;;;;;;;;;;;16.91;64.04;97677.17;1641569;87;20425;-84
2021/09/18 10:53:02;;;;;;;;;;;;;;;16.79;64.57;97674.34;1618692;87;21710;-80
2021/09/18 10:55:30;;;;;;;;;;;;;;;16.62;63.46;97672.44;1641408;86;20146;-84
2021/09/18 10:58:03;;;;;;;;;;;;;;;16.46;64.85;97671.36;1641460;85;20154;-84
2021/09/18 11:00:38;;;;;;;;;;;;;;;16.25;64.14;97675.94;1641591;87;20737;-84
2021/09/18 11:03:04;;;;;;;;;;;;;;;16.10;64.80;97671.77;1641609;87;20675;-79
2021/09/18 11:05:35;;;;;;;;;;;;;;;15.97;65.59;97668.08;1641524;86;20981;-84
2021/09/18 11:08:18;;;;;;;;;;;;;;;15.84;66.27;97669.63;1641803;86;20182;-84
2021/09/18 11:10:49;;;;;;;;;;;;;;;15.82;66.85;97668.59;1641676;86;20405;-80
2021/09/18 11:13:19;;;;;;;;;;;;;;;15.88;66.37;97675.48;1641794;85;20421;-79
2021/09/18 11:15:49;;;;;;;;;;;;;;;15.86;66.00;97672.84;1640593;87;20150;-84
2021/09/18 11:18:29;;;;;;;;;;;;;;;15.93;65.77;97673.16;1641799;85;21027;-84
2021/09/18 11:21:11;;;;;;;;;;;;;;;15.91;65.81;97672.69;1643111;86;20146;-80
2021/09/18 11:23:52;;;;;;;;;;;;;;;15.97;66.03;97665.91;1641892;87;20150;-79
2021/09/18 11:26:38;;;;;;;;;;;;;;;16.12;65.24;97667.34;1641560;87;20430;-80
2021/09/18 11:29:21;;;;;;;;;;;;;;;16.11;65.27;97664.38;1641596;86;20146;-81
2021/09/18 11:31:54;;;;;;;;;;;;;;;16.12;65.78;97670.08;1641727;87;20999;-81
2021/09/18 11:34:25;;;;;;;;;;;;;;;16.22;66.03;97668.36;1641528;86;20427;-81
2021/09/18 11:36:54;;;;;;;;;;;;;;;16.29;65.86;97669.48;1621696;86;20485;-77
2021/09/18 11:39:44;;;;;;;;;;;;;;;16.39;65.72;97665.59;1641607;86;20167;-77
2021/09/18 11:42:31;;;;;;;;;;;;;;;16.42;65.52;97674.53;1641655;85;20410;-80
2021/09/18 11:45:01;;;;;;;;;;;;;;;16.25;64.13;97672.64;1641250;86;21304;-81
2021/09/18 11:47:31;;;;;;;;;;;;;;;16.14;65.28;97673.28;1621227;86;20426;-82
2021/09/18 11:49:58;;;;;;;;;;;;;;;16.21;65.04;97672.23;1621595;87;20154;-81
2021/09/18 11:52:33;;;;;;;;;;;;;;;16.30;65.60;97666.98;1619541;87;20301;-77
2021/09/18 11:54:59;;;;;;;;;;;;;;;16.30;65.41;97666.98;1621670;87;20146;-82
2021/09/18 11:57:26;;;;;;;;;;;;;;;16.25;63.95;97665.00;1641564;86;20912;-77
2021/09/18 11:59:53;;;;;;;;;;;;;;;16.33;65.48;97670.45;1641451;86;20138;-77
2021/09/18 12:02:32;;;;;;;;;;;;;;;16.09;63.69;97664.70;1641611;85;20138;-78
2021/09/18 12:04:59;;;;;;;;;;;;;;;16.12;65.06;97668.14;1621159;86;20430;-77
2021/09/18 12:07:26;;;;;;;;;;;;;;;15.89;64.42;97660.69;1641594;86;20162;-82
2021/09/18 12:09:54;;;;;;;;;;;;;;;15.89;64.61;97659.89;1641503;86;20943;-78
2021/09/18 12:12:28;;;;;;;;;;;;;;;15.96;65.85;97661.01;1641726;86;20162;-82
2021/09/18 12:14:55;;;;;;;;;;;;;;;16.01;66.41;97662.22;1641699;86;20146;-81
2021/09/18 12:17:22;;;;;;;;;;;;;;;15.96;66.50;97657.47;1621429;87;20201;-81
2021/09/18 12:19:50;;;;;;;;;;;;;;;15.84;66.39;97660.87;1641796;85;20153;-77
2021/09/18 12:22:17;;;;;;;;;;;;;;;15.82;66.84;97659.03;1641580;86;21001;-82
2021/09/18 12:24:48;;;;;;;;;;;;;;;15.65;66.13;97653.00;1641682;86;20428;-78
2021/09/18 12:27:27;;;;;;;;;;;;;;;15.79;67.22;97652.26;1621998;87;20183;-82
2021/09/18 12:30:01;;;;;;;;;;;;;;;15.66;66.66;97653.81;1649832;85;20578;-81
2021/09/18 12:32:28;;;;;;;;;;;;;;;15.73;67.20;97659.59;1655767;86;20134;-77
2021/09/18 12:34:57;;;;;;;;;;;;;;;15.71;67.12;97653.63;1655897;85;20955;-81
2021/09/18 12:37:28;;;;;;;;;;;;;;;15.73;67.26;97656.30;1655674;85;20147;-82
2021/09/18 12:39:55;;;;;;;;;;;;;;;15.73;67.08;97661.77;1655701;85;20151;-82
2021/09/18 12:42:22;;;;;;;;;;;;;;;15.76;67.60;97661.67;1655730;85;20213;-77
2021/09/18 12:44:49;;;;;;;;;;;;;;;15.77;67.64;97659.18;1655850;85;20160;-81
2021/09/18 12:47:23;;;;;;;;;;;;;;;15.77;67.89;97661.91;1630619;86;21080;-81
2021/09/18 12:49:50;;;;;;;;;;;;;;;15.79;67.45;97656.36;1655812;85;20127;-81
2021/09/18 12:52:17;;;;;;;;;;;;;;;15.87;67.26;97653.95;1655612;85;20181;-81
2021/09/18 12:54:45;;;;;;;;;;;;;;;15.83;68.08;97657.90;1629153;86;20146;-82
2021/09/18 12:57:12;;;;;;;;;;;;;;;15.82;68.42;97659.03;1661002;85;20209;-77
2021/09/18 12:59:40;;;;;;;;;;;;;;;15.84;67.74;97663.60;1660851;85;21165;-81